Overview Statistics Trail Chart Weather Telemetry Raw packets
 

This is the latest recevied weather packets stored in our database for station/object W1RCP. If no packets are shown the sender has not sent any weather packets the latest 10 day(s).

<< 10 11 12 13 14 15 16 >>
Time Temp. Humidity Pressure Rain* Wind** Luminosity Snow
1788543007 33.33° C 62% 1027.1 hPa 0 mm - 918 W/m² -
1788542702 33.33° C 65% 1027 hPa 0 mm - 623 W/m² -
1788542401 32.78° C 64% 1027.2 hPa 0 mm - 939 W/m² -
1788542097 32.78° C 68% 1027.1 hPa 0 mm - 935 W/m² -
1788541792 33.33° C 65% 1027.3 hPa 0 mm - 903 W/m² -
1788541487 32.78° C 67% 1027.5 hPa 0 mm - 854 W/m² -
1788541183 32.22° C 71% 1027.5 hPa 0 mm - 864 W/m² -
1788540882 31.67° C 69% 1027.5 hPa 0 mm - 849 W/m² -
1788540581 31.11° C 72% 1027.5 hPa 0 mm - 863 W/m² -
1788540276 31.11° C 70% 1027.7 hPa 0 mm - 836 W/m² -
1788539973 31.11° C 72% 1027.6 hPa 0 mm - 209 W/m² -
1788539672 31.11° C 74% 1027.9 hPa 0 mm - 878 W/m² -
1788539372 30° C 75% 1027.8 hPa 0 mm - 851 W/m² -
1788539067 29.44° C 79% 1027.9 hPa 0 mm - 853 W/m² -
1788538763 28.89° C 80% 1027.9 hPa 0 mm - 437 W/m² -
1788538457 28.89° C 78% 1028 hPa 0 mm - 240 W/m² -
1788538154 28.89° C 79% 1028 hPa 0 mm - 166 W/m² -
1788537848 28.89° C 81% 1028 hPa 0 mm - 216 W/m² -
1788537544 28.89° C 80% 1028 hPa 0 mm - 201 W/m² -
1788537244 28.89° C 79% 1028 hPa 0 mm - 169 W/m² -
1788536943 29.44° C 76% 1028.2 hPa 0 mm - 164 W/m² -
1788536637 30.56° C 72% 1028 hPa 0 mm - 193 W/m² -
1788536333 30.56° C 72% 1028.1 hPa 0 mm - 197 W/m² -
1788536028 30.56° C 74% 1028 hPa 0 mm - 832 W/m² -
1788535724 29.44° C 78% 1028 hPa 0 mm - 308 W/m² -

* Rain latest hour (hover to see other rain measurements)
** Current wind speed in m/s (hover to see current wind gust speed)